sensor_id;sensor_type;location;lat;lon;timestamp;pressure;altitude;pressure_sealevel;temperature;humidity
54144;BME280;40050;47.324;18.792;2022-11-12T00:00:43;1019.84;;;7.95;73.27
54144;BME280;40050;47.324;18.792;2022-11-12T00:02:44;1019.79;;;7.98;73.46
54144;BME280;40050;47.324;18.792;2022-11-12T00:04:44;1019.85;;;7.94;73.58
54144;BME280;40050;47.324;18.792;2022-11-12T00:06:45;1019.95;;;7.96;73.98
54144;BME280;40050;47.324;18.792;2022-11-12T00:08:46;1019.87;;;7.96;74.03
54144;BME280;40050;47.324;18.792;2022-11-12T00:10:47;1019.81;;;7.99;73.84
54144;BME280;40050;47.324;18.792;2022-11-12T00:12:48;1019.83;;;7.98;73.88
54144;BME280;40050;47.324;18.792;2022-11-12T00:14:49;1019.79;;;7.97;74.03
54144;BME280;40050;47.324;18.792;2022-11-12T00:16:50;1019.80;;;8.00;74.01
54144;BME280;40050;47.324;18.792;2022-11-12T00:18:50;1019.80;;;8.02;74.02
54144;BME280;40050;47.324;18.792;2022-11-12T00:20:51;1019.84;;;8.02;74.01
54144;BME280;40050;47.324;18.792;2022-11-12T00:22:52;1019.78;;;8.02;74.01
54144;BME280;40050;47.324;18.792;2022-11-12T00:24:53;1019.82;;;8.06;73.94
54144;BME280;40050;47.324;18.792;2022-11-12T00:26:54;1019.80;;;8.06;73.83
54144;BME280;40050;47.324;18.792;2022-11-12T00:28:55;1019.73;;;8.05;73.76
54144;BME280;40050;47.324;18.792;2022-11-12T00:30:56;1019.76;;;8.09;73.71
54144;BME280;40050;47.324;18.792;2022-11-12T00:32:59;1019.74;;;8.07;73.57
54144;BME280;40050;47.324;18.792;2022-11-12T00:35:01;1019.74;;;8.10;73.53
54144;BME280;40050;47.324;18.792;2022-11-12T00:37:01;1019.68;;;8.06;73.49
54144;BME280;40050;47.324;18.792;2022-11-12T00:39:03;1019.67;;;8.09;73.46
54144;BME280;40050;47.324;18.792;2022-11-12T00:41:04;1019.68;;;8.07;73.49
54144;BME280;40050;47.324;18.792;2022-11-12T00:43:04;1019.37;;;7.88;73.44
54144;BME280;40050;47.324;18.792;2022-11-12T00:45:05;1019.69;;;8.08;73.50
54144;BME280;40050;47.324;18.792;2022-11-12T00:47:06;1019.71;;;8.06;73.56
54144;BME280;40050;47.324;18.792;2022-11-12T00:49:07;1019.63;;;8.04;73.50
54144;BME280;40050;47.324;18.792;2022-11-12T00:51:08;1019.62;;;8.07;73.49
54144;BME280;40050;47.324;18.792;2022-11-12T00:53:09;1019.54;;;8.06;73.40
54144;BME280;40050;47.324;18.792;2022-11-12T00:55:10;1019.49;;;8.04;73.37
54144;BME280;40050;47.324;18.792;2022-11-12T00:57:10;1019.46;;;8.05;73.35
54144;BME280;40050;47.324;18.792;2022-11-12T00:59:11;1019.48;;;8.07;73.33
54144;BME280;40050;47.324;18.792;2022-11-12T01:01:13;1019.51;;;8.07;73.40
54144;BME280;40050;47.324;18.792;2022-11-12T01:03:14;1019.48;;;8.07;73.43
54144;BME280;40050;47.324;18.792;2022-11-12T01:05:15;1019.46;;;8.05;73.51
54144;BME280;40050;47.324;18.792;2022-11-12T01:07:16;1019.55;;;8.07;73.53
54144;BME280;40050;47.324;18.792;2022-11-12T01:09:17;1019.54;;;8.07;73.56
54144;BME280;40050;47.324;18.792;2022-11-12T01:11:19;1019.48;;;8.08;73.69
54144;BME280;40050;47.324;18.792;2022-11-12T01:13:20;1019.44;;;8.06;73.83
54144;BME280;40050;47.324;18.792;2022-11-12T01:15:21;1019.32;;;8.02;73.87
54144;BME280;40050;47.324;18.792;2022-11-12T01:17:21;1019.35;;;8.08;73.63
54144;BME280;40050;47.324;18.792;2022-11-12T01:19:22;1019.39;;;8.08;73.59
54144;BME280;40050;47.324;18.792;2022-11-12T01:21:24;1019.33;;;8.03;73.65
54144;BME280;40050;47.324;18.792;2022-11-12T01:23:25;1019.32;;;8.04;73.85
54144;BME280;40050;47.324;18.792;2022-11-12T01:25:26;1019.28;;;8.01;74.04
54144;BME280;40050;47.324;18.792;2022-11-12T01:27:27;1019.33;;;8.06;74.01
54144;BME280;40050;47.324;18.792;2022-11-12T01:29:28;1019.36;;;8.06;73.83
54144;BME280;40050;47.324;18.792;2022-11-12T01:31:30;1019.28;;;8.03;73.80
54144;BME280;40050;47.324;18.792;2022-11-12T01:33:31;1019.19;;;8.01;73.87
54144;BME280;40050;47.324;18.792;2022-11-12T01:35:32;1019.24;;;8.00;74.02
54144;BME280;40050;47.324;18.792;2022-11-12T01:37:33;1019.21;;;8.01;74.18
54144;BME280;40050;47.324;18.792;2022-11-12T01:39:33;1019.17;;;7.99;74.14
54144;BME280;40050;47.324;18.792;2022-11-12T01:41:37;1019.17;;;8.01;74.05
54144;BME280;40050;47.324;18.792;2022-11-12T01:43:38;1019.12;;;7.96;73.95
54144;BME280;40050;47.324;18.792;2022-11-12T01:45:40;1019.19;;;8.03;74.01
54144;BME280;40050;47.324;18.792;2022-11-12T01:47:43;1019.09;;;8.05;73.99
54144;BME280;40050;47.324;18.792;2022-11-12T01:52:12;1019.09;;;8.06;74.09
54144;BME280;40050;47.324;18.792;2022-11-12T01:54:15;1019.01;;;8.03;74.22
54144;BME280;40050;47.324;18.792;2022-11-12T01:56:17;1019.02;;;8.06;74.40
54144;BME280;40050;47.324;18.792;2022-11-12T01:58:20;1019.03;;;8.06;74.62
54144;BME280;40050;47.324;18.792;2022-11-12T02:00:23;1018.99;;;8.07;74.70
54144;BME280;40050;47.324;18.792;2022-11-12T02:02:23;1019.00;;;8.08;74.74
54144;BME280;40050;47.324;18.792;2022-11-12T02:04:25;1019.02;;;8.07;74.79
54144;BME280;40050;47.324;18.792;2022-11-12T02:06:26;1019.05;;;8.04;74.82
54144;BME280;40050;47.324;18.792;2022-11-12T02:08:27;1019.03;;;8.06;74.87
54144;BME280;40050;47.324;18.792;2022-11-12T02:10:29;1019.01;;;8.04;74.90
54144;BME280;40050;47.324;18.792;2022-11-12T02:12:30;1019.04;;;8.06;75.05
54144;BME280;40050;47.324;18.792;2022-11-12T02:14:31;1019.08;;;8.10;75.04
54144;BME280;40050;47.324;18.792;2022-11-12T02:16:33;1019.07;;;8.10;74.99
54144;BME280;40050;47.324;18.792;2022-11-12T02:18:35;1019.01;;;8.11;74.96
54144;BME280;40050;47.324;18.792;2022-11-12T02:20:37;1018.97;;;8.11;74.68
54144;BME280;40050;47.324;18.792;2022-11-12T02:22:38;1018.86;;;8.08;74.48
54144;BME280;40050;47.324;18.792;2022-11-12T02:24:39;1018.89;;;8.08;74.38
54144;BME280;40050;47.324;18.792;2022-11-12T02:26:40;1018.91;;;8.10;74.23
54144;BME280;40050;47.324;18.792;2022-11-12T02:28:42;1018.86;;;8.10;74.02
54144;BME280;40050;47.324;18.792;2022-11-12T02:30:47;1018.76;;;8.08;73.88
54144;BME280;40050;47.324;18.792;2022-11-12T02:32:48;1018.77;;;8.07;73.98
54144;BME280;40050;47.324;18.792;2022-11-12T02:34:49;1018.66;;;8.00;74.00
54144;BME280;40050;47.324;18.792;2022-11-12T02:36:50;1018.77;;;8.03;73.94
54144;BME280;40050;47.324;18.792;2022-11-12T02:38:51;1018.74;;;8.00;73.80
54144;BME280;40050;47.324;18.792;2022-11-12T02:40:52;1018.81;;;7.99;73.57
54144;BME280;40050;47.324;18.792;2022-11-12T02:42:53;1018.67;;;7.88;73.61
54144;BME280;40050;47.324;18.792;2022-11-12T02:44:53;1018.84;;;7.96;73.67
54144;BME280;40050;47.324;18.792;2022-11-12T02:46:54;1018.84;;;7.91;73.62
54144;BME280;40050;47.324;18.792;2022-11-12T02:48:55;1018.92;;;7.89;73.70
54144;BME280;40050;47.324;18.792;2022-11-12T02:50:56;1018.99;;;7.88;73.75
54144;BME280;40050;47.324;18.792;2022-11-12T02:52:57;1018.92;;;7.85;73.72
54144;BME280;40050;47.324;18.792;2022-11-12T02:54:57;1018.97;;;7.85;73.75
54144;BME280;40050;47.324;18.792;2022-11-12T02:56:58;1019.03;;;7.85;73.80
54144;BME280;40050;47.324;18.792;2022-11-12T02:58:59;1019.01;;;7.82;73.67
54144;BME280;40050;47.324;18.792;2022-11-12T03:01:00;1018.97;;;7.80;73.59
54144;BME280;40050;47.324;18.792;2022-11-12T03:03:01;1018.93;;;7.80;73.52
54144;BME280;40050;47.324;18.792;2022-11-12T03:05:02;1018.97;;;7.81;73.42
54144;BME280;40050;47.324;18.792;2022-11-12T03:07:02;1018.95;;;7.79;73.32
54144;BME280;40050;47.324;18.792;2022-11-12T03:09:03;1018.91;;;7.76;73.31
54144;BME280;40050;47.324;18.792;2022-11-12T03:11:05;1018.92;;;7.78;73.18
54144;BME280;40050;47.324;18.792;2022-11-12T03:13:06;1018.84;;;7.71;73.03
54144;BME280;40050;47.324;18.792;2022-11-12T03:15:07;1018.91;;;7.73;72.91
54144;BME280;40050;47.324;18.792;2022-11-12T03:17:07;1018.87;;;7.71;72.73
54144;BME280;40050;47.324;18.792;2022-11-12T03:19:08;1018.82;;;7.65;72.62
54144;BME280;40050;47.324;18.792;2022-11-12T03:21:09;1018.80;;;7.63;72.55
54144;BME280;40050;47.324;18.792;2022-11-12T03:23:10;1018.83;;;7.60;72.72
54144;BME280;40050;47.324;18.792;2022-11-12T03:25:11;1018.79;;;7.59;73.06
54144;BME280;40050;47.324;18.792;2022-11-12T03:27:12;1018.73;;;7.56;73.31
54144;BME280;40050;47.324;18.792;2022-11-12T03:29:12;1018.75;;;7.59;73.65
54144;BME280;40050;47.324;18.792;2022-11-12T03:31:13;1018.82;;;7.59;73.76
54144;BME280;40050;47.324;18.792;2022-11-12T03:33:14;1018.83;;;7.59;73.96
54144;BME280;40050;47.324;18.792;2022-11-12T03:35:15;1018.85;;;7.61;74.17
54144;BME280;40050;47.324;18.792;2022-11-12T03:37:16;1018.82;;;7.62;74.49
54144;BME280;40050;47.324;18.792;2022-11-12T03:39:17;1018.79;;;7.64;74.63
54144;BME280;40050;47.324;18.792;2022-11-12T03:41:17;1018.80;;;7.66;74.80
54144;BME280;40050;47.324;18.792;2022-11-12T03:43:18;1018.77;;;7.65;74.77
54144;BME280;40050;47.324;18.792;2022-11-12T03:45:20;1018.77;;;7.62;74.80
54144;BME280;40050;47.324;18.792;2022-11-12T03:47:21;1018.75;;;7.64;74.93
54144;BME280;40050;47.324;18.792;2022-11-12T03:49:22;1018.81;;;7.66;75.04
54144;BME280;40050;47.324;18.792;2022-11-12T03:51:22;1018.79;;;7.67;75.09
54144;BME280;40050;47.324;18.792;2022-11-12T03:53:23;1018.82;;;7.70;75.15
54144;BME280;40050;47.324;18.792;2022-11-12T03:55:25;1018.83;;;7.68;75.16
54144;BME280;40050;47.324;18.792;2022-11-12T03:57:26;1018.90;;;7.71;75.08
54144;BME280;40050;47.324;18.792;2022-11-12T03:59:27;1018.94;;;7.72;74.98
54144;BME280;40050;47.324;18.792;2022-11-12T04:01:28;1018.92;;;7.73;74.96
54144;BME280;40050;47.324;18.792;2022-11-12T04:03:29;1018.97;;;7.72;74.88
54144;BME280;40050;47.324;18.792;2022-11-12T04:05:30;1018.75;;;7.62;74.84
54144;BME280;40050;47.324;18.792;2022-11-12T04:07:30;1018.79;;;7.61;74.85
54144;BME280;40050;47.324;18.792;2022-11-12T04:09:31;1018.98;;;7.76;74.86
54144;BME280;40050;47.324;18.792;2022-11-12T04:11:32;1018.92;;;7.73;74.85
54144;BME280;40050;47.324;18.792;2022-11-12T04:13:33;1018.92;;;7.75;74.52
54144;BME280;40050;47.324;18.792;2022-11-12T04:15:34;1018.92;;;7.78;74.10
54144;BME280;40050;47.324;18.792;2022-11-12T04:17:35;1018.90;;;7.75;73.48
54144;BME280;40050;47.324;18.792;2022-11-12T04:19:36;1018.93;;;7.69;73.37
54144;BME280;40050;47.324;18.792;2022-11-12T04:21:41;1018.90;;;7.63;73.55
54144;BME280;40050;47.324;18.792;2022-11-12T04:23:42;1018.86;;;7.60;73.76
54144;BME280;40050;47.324;18.792;2022-11-12T04:25:43;1018.90;;;7.61;73.89
54144;BME280;40050;47.324;18.792;2022-11-12T04:27:44;1018.82;;;7.61;73.96
54144;BME280;40050;47.324;18.792;2022-11-12T04:29:44;1018.78;;;7.63;73.78
54144;BME280;40050;47.324;18.792;2022-11-12T04:31:46;1018.74;;;7.61;73.58
54144;BME280;40050;47.324;18.792;2022-11-12T04:33:47;1018.73;;;7.55;73.50
54144;BME280;40050;47.324;18.792;2022-11-12T04:35:47;1018.66;;;7.50;73.39
54144;BME280;40050;47.324;18.792;2022-11-12T04:37:48;1018.62;;;7.45;73.33
54144;BME280;40050;47.324;18.792;2022-11-12T04:39:49;1018.61;;;7.46;73.25
54144;BME280;40050;47.324;18.792;2022-11-12T04:41:50;1018.66;;;7.44;73.28
54144;BME280;40050;47.324;18.792;2022-11-12T04:43:51;1018.66;;;7.38;73.40
54144;BME280;40050;47.324;18.792;2022-11-12T04:45:52;1018.62;;;7.28;73.63
54144;BME280;40050;47.324;18.792;2022-11-12T04:47:53;1018.68;;;7.28;73.80
54144;BME280;40050;47.324;18.792;2022-11-12T04:49:54;1018.73;;;7.30;74.10
54144;BME280;40050;47.324;18.792;2022-11-12T04:51:55;1018.71;;;7.29;74.29
54144;BME280;40050;47.324;18.792;2022-11-12T04:53:56;1018.69;;;7.28;74.41
54144;BME280;40050;47.324;18.792;2022-11-12T04:55:57;1018.71;;;7.28;74.50
54144;BME280;40050;47.324;18.792;2022-11-12T04:57:58;1018.70;;;7.29;74.58
54144;BME280;40050;47.324;18.792;2022-11-12T04:59:59;1018.69;;;7.27;74.65
54144;BME280;40050;47.324;18.792;2022-11-12T05:02:00;1018.71;;;7.29;74.71
54144;BME280;40050;47.324;18.792;2022-11-12T05:04:00;1018.70;;;7.28;74.67
54144;BME280;40050;47.324;18.792;2022-11-12T05:06:04;1018.41;;;7.14;74.51
54144;BME280;40050;47.324;18.792;2022-11-12T05:08:05;1018.68;;;7.29;74.35
54144;BME280;40050;47.324;18.792;2022-11-12T05:10:06;1018.70;;;7.29;74.33
54144;BME280;40050;47.324;18.792;2022-11-12T05:12:08;1018.75;;;7.29;74.32
54144;BME280;40050;47.324;18.792;2022-11-12T05:14:09;1018.78;;;7.25;74.34
54144;BME280;40050;47.324;18.792;2022-11-12T05:16:09;1018.84;;;7.27;74.14
54144;BME280;40050;47.324;18.792;2022-11-12T05:18:10;1018.81;;;7.23;74.20
54144;BME280;40050;47.324;18.792;2022-11-12T05:20:11;1018.87;;;7.25;74.27
54144;BME280;40050;47.324;18.792;2022-11-12T05:22:12;1018.79;;;7.22;74.29
54144;BME280;40050;47.324;18.792;2022-11-12T05:24:13;1018.56;;;7.06;74.13
54144;BME280;40050;47.324;18.792;2022-11-12T05:26:14;1018.91;;;7.22;74.13
54144;BME280;40050;47.324;18.792;2022-11-12T05:28:15;1018.79;;;7.20;74.07
54144;BME280;40050;47.324;18.792;2022-11-12T05:30:16;1018.70;;;7.17;73.88
54144;BME280;40050;47.324;18.792;2022-11-12T05:32:17;1018.75;;;7.18;73.91
54144;BME280;40050;47.324;18.792;2022-11-12T05:34:18;1018.79;;;7.17;73.98
54144;BME280;40050;47.324;18.792;2022-11-12T05:36:18;1018.80;;;7.16;74.10
54144;BME280;40050;47.324;18.792;2022-11-12T05:38:19;1018.92;;;7.22;73.83
54144;BME280;40050;47.324;18.792;2022-11-12T05:40:20;1018.91;;;7.14;73.15
54144;BME280;40050;47.324;18.792;2022-11-12T05:42:21;1018.94;;;7.08;72.91
54144;BME280;40050;47.324;18.792;2022-11-12T05:44:22;1019.00;;;7.05;73.18
54144;BME280;40050;47.324;18.792;2022-11-12T05:46:22;1018.99;;;7.02;73.38
54144;BME280;40050;47.324;18.792;2022-11-12T05:48:23;1018.98;;;7.02;73.55
54144;BME280;40050;47.324;18.792;2022-11-12T05:50:24;1018.99;;;7.03;73.70
54144;BME280;40050;47.324;18.792;2022-11-12T05:52:25;1019.03;;;7.00;73.72
54144;BME280;40050;47.324;18.792;2022-11-12T05:54:26;1018.94;;;6.99;74.00
54144;BME280;40050;47.324;18.792;2022-11-12T05:56:27;1019.00;;;6.97;74.11
54144;BME280;40050;47.324;18.792;2022-11-12T05:58:27;1018.98;;;7.02;73.48
54144;BME280;40050;47.324;18.792;2022-11-12T06:00:28;1018.97;;;6.93;73.08
54144;BME280;40050;47.324;18.792;2022-11-12T06:02:29;1019.04;;;6.85;73.25
54144;BME280;40050;47.324;18.792;2022-11-12T06:04:30;1019.12;;;6.85;73.61
54144;BME280;40050;47.324;18.792;2022-11-12T06:06:30;1019.05;;;6.83;73.93
54144;BME280;40050;47.324;18.792;2022-11-12T06:08:31;1019.12;;;6.84;74.14
54144;BME280;40050;47.324;18.792;2022-11-12T06:10:32;1019.16;;;6.81;74.24
54144;BME280;40050;47.324;18.792;2022-11-12T06:12:33;1019.17;;;6.82;74.28
54144;BME280;40050;47.324;18.792;2022-11-12T06:14:34;1019.18;;;6.82;74.27
54144;BME280;40050;47.324;18.792;2022-11-12T06:16:34;1018.95;;;6.72;74.33
54144;BME280;40050;47.324;18.792;2022-11-12T06:18:35;1019.17;;;6.85;74.40
54144;BME280;40050;47.324;18.792;2022-11-12T06:20:36;1019.22;;;6.84;74.45
54144;BME280;40050;47.324;18.792;2022-11-12T06:22:37;1019.33;;;6.88;74.46
54144;BME280;40050;47.324;18.792;2022-11-12T06:24:38;1019.39;;;6.89;74.60
54144;BME280;40050;47.324;18.792;2022-11-12T06:26:39;1019.36;;;6.87;74.73
54144;BME280;40050;47.324;18.792;2022-11-12T06:28:40;1019.40;;;6.91;74.73
54144;BME280;40050;47.324;18.792;2022-11-12T06:30:40;1019.18;;;6.78;74.77
54144;BME280;40050;47.324;18.792;2022-11-12T06:32:44;1019.49;;;6.94;74.99
54144;BME280;40050;47.324;18.792;2022-11-12T06:34:45;1019.47;;;6.95;75.09
54144;BME280;40050;47.324;18.792;2022-11-12T06:36:45;1019.51;;;6.96;75.05
54144;BME280;40050;47.324;18.792;2022-11-12T06:38:46;1019.49;;;6.97;74.97
54144;BME280;40050;47.324;18.792;2022-11-12T06:40:47;1019.53;;;6.99;74.94
54144;BME280;40050;47.324;18.792;2022-11-12T06:42:54;1019.55;;;7.00;74.94
54144;BME280;40050;47.324;18.792;2022-11-12T06:44:55;1019.54;;;6.98;74.97
54144;BME280;40050;47.324;18.792;2022-11-12T06:46:56;1019.58;;;7.00;75.02
54144;BME280;40050;47.324;18.792;2022-11-12T06:48:56;1019.59;;;6.97;75.27
54144;BME280;40050;47.324;18.792;2022-11-12T06:50:57;1019.35;;;6.87;75.38
54144;BME280;40050;47.324;18.792;2022-11-12T06:52:58;1019.68;;;7.07;75.46
54144;BME280;40050;47.324;18.792;2022-11-12T06:54:59;1019.68;;;7.05;75.67
54144;BME280;40050;47.324;18.792;2022-11-12T06:57:00;1019.58;;;7.08;75.85
54144;BME280;40050;47.324;18.792;2022-11-12T06:59:01;1019.52;;;7.14;75.85
54144;BME280;40050;47.324;18.792;2022-11-12T07:01:12;1019.55;;;7.17;75.88
54144;BME280;40050;47.324;18.792;2022-11-12T07:03:13;1019.55;;;7.16;75.97
54144;BME280;40050;47.324;18.792;2022-11-12T07:05:14;1019.59;;;7.18;76.08
54144;BME280;40050;47.324;18.792;2022-11-12T07:07:15;1019.63;;;7.23;76.24
54144;BME280;40050;47.324;18.792;2022-11-12T07:09:16;1019.61;;;7.26;76.32
54144;BME280;40050;47.324;18.792;2022-11-12T07:11:17;1019.61;;;7.30;76.16
54144;BME280;40050;47.324;18.792;2022-11-12T07:13:18;1019.64;;;7.34;76.05
54144;BME280;40050;47.324;18.792;2022-11-12T07:15:19;1019.64;;;7.39;76.08
54144;BME280;40050;47.324;18.792;2022-11-12T07:17:20;1019.69;;;7.41;76.10
54144;BME280;40050;47.324;18.792;2022-11-12T07:19:21;1019.72;;;7.43;76.24
54144;BME280;40050;47.324;18.792;2022-11-12T07:21:22;1019.67;;;7.45;76.47
54144;BME280;40050;47.324;18.792;2022-11-12T07:23:23;1019.84;;;7.49;76.61
54144;BME280;40050;47.324;18.792;2022-11-12T07:25:24;1019.82;;;7.55;76.56
54144;BME280;40050;47.324;18.792;2022-11-12T07:27:27;1019.80;;;7.61;76.58
54144;BME280;40050;47.324;18.792;2022-11-12T07:29:28;1019.64;;;7.60;76.54
54144;BME280;40050;47.324;18.792;2022-11-12T07:31:29;1019.71;;;7.74;76.57
54144;BME280;40050;47.324;18.792;2022-11-12T07:33:30;1019.64;;;7.74;76.74
54144;BME280;40050;47.324;18.792;2022-11-12T07:35:31;1019.65;;;7.80;76.88
54144;BME280;40050;47.324;18.792;2022-11-12T07:37:32;1019.70;;;7.83;77.20
54144;BME280;40050;47.324;18.792;2022-11-12T07:39:33;1019.71;;;7.92;77.28
54144;BME280;40050;47.324;18.792;2022-11-12T07:41:34;1019.64;;;8.04;77.14
54144;BME280;40050;47.324;18.792;2022-11-12T07:43:35;1019.65;;;8.07;77.30
54144;BME280;40050;47.324;18.792;2022-11-12T07:45:36;1019.67;;;8.13;77.49
54144;BME280;40050;47.324;18.792;2022-11-12T07:47:37;1019.66;;;8.18;77.80
54144;BME280;40050;47.324;18.792;2022-11-12T07:49:38;1019.72;;;8.18;78.34
54144;BME280;40050;47.324;18.792;2022-11-12T07:51:39;1019.70;;;8.23;78.70
54144;BME280;40050;47.324;18.792;2022-11-12T07:53:40;1019.61;;;8.30;79.02
54144;BME280;40050;47.324;18.792;2022-11-12T07:55:41;1019.64;;;8.37;79.54
54144;BME280;40050;47.324;18.792;2022-11-12T07:57:42;1019.67;;;8.44;79.80
54144;BME280;40050;47.324;18.792;2022-11-12T07:59:43;1019.64;;;8.50;80.13
54144;BME280;40050;47.324;18.792;2022-11-12T08:01:43;1019.77;;;8.63;80.24
54144;BME280;40050;47.324;18.792;2022-11-12T08:03:44;1019.78;;;8.73;80.29
54144;BME280;40050;47.324;18.792;2022-11-12T08:05:45;1019.78;;;8.81;80.44
54144;BME280;40050;47.324;18.792;2022-11-12T08:07:46;1019.81;;;8.94;80.60
54144;BME280;40050;47.324;18.792;2022-11-12T08:09:47;1019.87;;;9.18;80.33
54144;BME280;40050;47.324;18.792;2022-11-12T08:11:48;1019.87;;;9.31;80.18
54144;BME280;40050;47.324;18.792;2022-11-12T08:13:49;1019.91;;;9.41;80.43
54144;BME280;40050;47.324;18.792;2022-11-12T08:15:50;1019.96;;;9.62;80.44
54144;BME280;40050;47.324;18.792;2022-11-12T08:17:51;1019.89;;;9.82;80.28
54144;BME280;40050;47.324;18.792;2022-11-12T08:19:51;1019.91;;;10.01;79.83
54144;BME280;40050;47.324;18.792;2022-11-12T08:21:52;1019.97;;;10.13;79.73
54144;BME280;40050;47.324;18.792;2022-11-12T08:23:53;1019.98;;;10.29;79.00
54144;BME280;40050;47.324;18.792;2022-11-12T08:26:00;1019.97;;;10.41;78.68
54144;BME280;40050;47.324;18.792;2022-11-12T08:28:01;1020.04;;;10.55;78.13
54144;BME280;40050;47.324;18.792;2022-11-12T08:30:02;1020.05;;;10.62;77.43
54144;BME280;40050;47.324;18.792;2022-11-12T08:32:04;1020.02;;;10.64;77.00
54144;BME280;40050;47.324;18.792;2022-11-12T08:34:05;1019.96;;;10.65;77.08
54144;BME280;40050;47.324;18.792;2022-11-12T08:36:06;1019.95;;;10.77;76.99
54144;BME280;40050;47.324;18.792;2022-11-12T08:38:07;1019.92;;;10.85;76.66
54144;BME280;40050;47.324;18.792;2022-11-12T08:40:09;1020.00;;;10.91;76.69
54144;BME280;40050;47.324;18.792;2022-11-12T08:42:10;1020.02;;;11.01;76.63
54144;BME280;40050;47.324;18.792;2022-11-12T08:44:11;1019.95;;;11.07;76.31
54144;BME280;40050;47.324;18.792;2022-11-12T08:46:11;1019.96;;;11.10;76.23
54144;BME280;40050;47.324;18.792;2022-11-12T08:48:12;1020.05;;;11.17;76.49
54144;BME280;40050;47.324;18.792;2022-11-12T08:50:13;1020.08;;;11.29;76.51
54144;BME280;40050;47.324;18.792;2022-11-12T08:52:14;1020.15;;;11.36;76.66
54144;BME280;40050;47.324;18.792;2022-11-12T08:54:15;1020.13;;;11.47;76.06
54144;BME280;40050;47.324;18.792;2022-11-12T08:56:16;1020.15;;;11.49;75.93
54144;BME280;40050;47.324;18.792;2022-11-12T08:58:16;1020.08;;;11.55;75.81
54144;BME280;40050;47.324;18.792;2022-11-12T09:00:17;1020.15;;;11.66;75.73
54144;BME280;40050;47.324;18.792;2022-11-12T09:02:18;1020.16;;;11.71;75.29
54144;BME280;40050;47.324;18.792;2022-11-12T09:04:19;1020.19;;;11.81;75.19
54144;BME280;40050;47.324;18.792;2022-11-12T09:06:20;1020.19;;;11.86;74.89
54144;BME280;40050;47.324;18.792;2022-11-12T09:08:21;1020.21;;;11.89;74.68
54144;BME280;40050;47.324;18.792;2022-11-12T09:10:23;1020.17;;;11.94;74.30
54144;BME280;40050;47.324;18.792;2022-11-12T09:12:24;1019.96;;;11.80;74.18
54144;BME280;40050;47.324;18.792;2022-11-12T09:14:24;1020.24;;;11.98;74.03
54144;BME280;40050;47.324;18.792;2022-11-12T09:16:25;1020.26;;;12.03;74.03
54144;BME280;40050;47.324;18.792;2022-11-12T09:18:26;1020.18;;;11.99;74.22
54144;BME280;40050;47.324;18.792;2022-11-12T09:20:27;1020.35;;;12.06;74.03
54144;BME280;40050;47.324;18.792;2022-11-12T09:22:28;1020.31;;;12.10;74.34
54144;BME280;40050;47.324;18.792;2022-11-12T09:24:29;1020.36;;;12.14;74.12
54144;BME280;40050;47.324;18.792;2022-11-12T09:26:30;1020.35;;;12.12;74.13
54144;BME280;40050;47.324;18.792;2022-11-12T09:28:31;1020.36;;;12.16;74.24
54144;BME280;40050;47.324;18.792;2022-11-12T09:30:32;1020.38;;;12.17;74.11
54144;BME280;40050;47.324;18.792;2022-11-12T09:32:32;1020.40;;;12.19;74.13
54144;BME280;40050;47.324;18.792;2022-11-12T09:34:33;1020.44;;;12.19;74.21
54144;BME280;40050;47.324;18.792;2022-11-12T09:36:34;1020.49;;;12.23;74.34
54144;BME280;40050;47.324;18.792;2022-11-12T09:38:35;1020.51;;;12.26;74.28
54144;BME280;40050;47.324;18.792;2022-11-12T09:40:38;1020.53;;;12.27;74.32
54144;BME280;40050;47.324;18.792;2022-11-12T09:42:41;1020.58;;;12.37;74.37
54144;BME280;40050;47.324;18.792;2022-11-12T09:44:45;1020.58;;;12.40;74.33
54144;BME280;40050;47.324;18.792;2022-11-12T09:46:54;1020.55;;;12.45;74.24
54144;BME280;40050;47.324;18.792;2022-11-12T09:49:09;1020.59;;;12.56;73.85
54144;BME280;40050;47.324;18.792;2022-11-12T09:51:15;1020.58;;;12.55;74.29
54144;BME280;40050;47.324;18.792;2022-11-12T09:53:22;1020.60;;;12.58;74.49
54144;BME280;40050;47.324;18.792;2022-11-12T09:55:32;1020.54;;;12.64;74.69
54144;BME280;40050;47.324;18.792;2022-11-12T09:57:33;1020.56;;;12.73;74.57
54144;BME280;40050;47.324;18.792;2022-11-12T09:59:34;1020.52;;;12.78;74.51
54144;BME280;40050;47.324;18.792;2022-11-12T10:06:20;1020.57;;;13.08;74.03
54144;BME280;40050;47.324;18.792;2022-11-12T10:08:27;1020.52;;;13.14;73.57
54144;BME280;40050;47.324;18.792;2022-11-12T10:12:48;1020.51;;;13.28;72.72
54144;BME280;40050;47.324;18.792;2022-11-12T10:24:18;1020.61;;;13.50;71.80
54144;BME280;40050;47.324;18.792;2022-11-12T10:26:20;1020.58;;;13.62;72.14
54144;BME280;40050;47.324;18.792;2022-11-12T10:28:23;1020.59;;;13.77;71.94
54144;BME280;40050;47.324;18.792;2022-11-12T10:30:25;1020.54;;;13.97;72.07
54144;BME280;40050;47.324;18.792;2022-11-12T10:32:26;1020.54;;;14.13;70.86
54144;BME280;40050;47.324;18.792;2022-11-12T10:34:27;1020.53;;;14.18;70.15
54144;BME280;40050;47.324;18.792;2022-11-12T10:36:29;1020.51;;;14.27;70.09
54144;BME280;40050;47.324;18.792;2022-11-12T10:38:31;1020.52;;;14.39;70.37
54144;BME280;40050;47.324;18.792;2022-11-12T10:40:33;1020.50;;;14.58;70.08
54144;BME280;40050;47.324;18.792;2022-11-12T10:42:36;1020.47;;;14.77;69.65
54144;BME280;40050;47.324;18.792;2022-11-12T10:44:47;1020.39;;;14.92;68.90
54144;BME280;40050;47.324;18.792;2022-11-12T10:46:48;1020.36;;;15.05;68.85
54144;BME280;40050;47.324;18.792;2022-11-12T10:48:59;1020.32;;;15.28;68.11
54144;BME280;40050;47.324;18.792;2022-11-12T10:51:00;1020.28;;;15.40;67.00
54144;BME280;40050;47.324;18.792;2022-11-12T10:53:02;1020.29;;;15.45;66.99
54144;BME280;40050;47.324;18.792;2022-11-12T10:55:14;1020.23;;;15.50;66.84
54144;BME280;40050;47.324;18.792;2022-11-12T10:57:33;1020.18;;;15.60;67.01
54144;BME280;40050;47.324;18.792;2022-11-12T10:59:31;1020.16;;;15.78;66.72
54144;BME280;40050;47.324;18.792;2022-11-12T11:01:31;1020.16;;;15.95;66.15
54144;BME280;40050;47.324;18.792;2022-11-12T11:03:33;1020.15;;;16.07;66.03
54144;BME280;40050;47.324;18.792;2022-11-12T11:05:35;1020.06;;;16.13;64.24
54144;BME280;40050;47.324;18.792;2022-11-12T11:07:38;1020.13;;;16.27;64.69